Terminal Aerodrome Forecast
Issued by NWS

Home | Current Version | Previous Version | Text Only | Print | Product List | Glossary On
Versions: 1 2 3 4 5 6 7 8 9 10 11 12 13 14 15 16 17 18 19 20 21 22 23
000
FTUS43 KLSX 151900 AAA
TAFCPS
TAF AMD
KCPS 151958Z 1520/1618 15013G23KT 5SM BR OVC008
      TEMPO 1520/1522 2SM -DZ BR
     FM152200 16013G23KT P6SM VCSH BKN015
     FM160300 24013G23KT P6SM OVC015
     FM161200 29015G25KT P6SM OVC015=

USA.gov is the U.S. government's official web portal to all federal, state and local government web resources and services.